Time;durP1;ratioP1;P1;durP2;ratioP2;P2;SDS_P1;SDS_P2;PMS_P1;PMS_P2;Temp;Humidity;BMP_temperature;BMP_pressure;BME280_temperature;BME280_humidity;BME280_pressure;Samples;Min_cycle;Max_cycle;Signal;HPM_P1;HPM_P2
2022/07/16 00:01:23;;;;;;;;;;;20.20;79.30;;;;;;4359710;33;42541;-79
2022/07/16 00:03:52;;;;;;;;;;;20.20;79.60;;;;;;4357989;33;42618;-80
2022/07/16 00:06:20;;;;;;;;;;;20.20;79.30;;;;;;4358497;33;43501;-79
2022/07/16 00:08:50;;;;;;;;;;;20.20;79.40;;;;;;4359540;33;43204;-79
2022/07/16 00:11:18;;;;;;;;;;;20.20;79.50;;;;;;4358432;33;42082;-80
2022/07/16 00:13:45;;;;;;;;;;;20.10;79.60;;;;;;4359673;33;43717;-79
2022/07/16 00:16:12;;;;;;;;;;;20.10;79.70;;;;;;4359996;33;43250;-80
2022/07/16 00:21:28;;;;;;;;;;;20.10;79.70;;;;;;4359714;33;44226;-79
2022/07/16 00:23:55;;;;;;;;;;;20.10;79.90;;;;;;4359376;33;43340;-79
2022/07/16 00:26:22;;;;;;;;;;;20.00;79.60;;;;;;4359433;33;42604;-80
2022/07/16 00:28:49;;;;;;;;;;;20.10;80.00;;;;;;4358709;33;43598;-79
2022/07/16 00:31:16;;;;;;;;;;;20.00;79.50;;;;;;4359620;33;44777;-79
2022/07/16 00:33:43;;;;;;;;;;;20.00;79.50;;;;;;4360454;32;43811;-80
2022/07/16 00:36:10;;;;;;;;;;;20.00;79.70;;;;;;4362185;32;44268;-80
2022/07/16 00:38:37;;;;;;;;;;;20.00;79.50;;;;;;4346310;33;43074;-80
2022/07/16 00:41:04;;;;;;;;;;;20.00;79.80;;;;;;4347619;33;43261;-79
2022/07/16 00:43:44;;;;;;;;;;;19.90;79.50;;;;;;4346543;33;42860;-80
2022/07/16 00:46:11;;;;;;;;;;;19.90;79.60;;;;;;4347840;32;44812;-79
2022/07/16 00:48:38;;;;;;;;;;;19.90;79.60;;;;;;4347652;33;43285;-79
2022/07/16 00:51:06;;;;;;;;;;;19.90;79.80;;;;;;4347281;33;42957;-79
2022/07/16 00:53:34;;;;;;;;;;;19.80;79.70;;;;;;4348193;33;20044;-79
2022/07/16 00:56:02;;;;;;;;;;;19.80;79.60;;;;;;4347630;33;42922;-80
2022/07/16 00:58:29;;;;;;;;;;;19.80;79.70;;;;;;4347364;33;44184;-79
2022/07/16 01:00:56;;;;;;;;;;;19.80;79.70;;;;;;4347550;33;43982;-79
2022/07/16 01:03:23;;;;;;;;;;;19.80;80.00;;;;;;4347001;33;43861;-82
2022/07/16 01:05:50;;;;;;;;;;;19.80;79.90;;;;;;4346038;33;42975;-81
2022/07/16 01:08:17;;;;;;;;;;;19.80;79.80;;;;;;4347085;33;43278;-81
2022/07/16 01:10:44;;;;;;;;;;;19.70;79.80;;;;;;4346833;33;46021;-81
2022/07/16 01:13:13;;;;;;;;;;;19.70;80.00;;;;;;4345916;33;43295;-80
2022/07/16 01:15:42;;;;;;;;;;;19.70;80.00;;;;;;4347363;32;44003;-81
2022/07/16 01:18:09;;;;;;;;;;;19.70;80.00;;;;;;4347247;33;43888;-80
2022/07/16 01:20:37;;;;;;;;;;;19.70;80.20;;;;;;4346837;33;44268;-81
2022/07/16 01:23:04;;;;;;;;;;;19.70;80.20;;;;;;4346367;33;42894;-82
2022/07/16 01:25:32;;;;;;;;;;;19.70;80.10;;;;;;4346756;33;43441;-82
2022/07/16 01:27:59;;;;;;;;;;;19.60;80.10;;;;;;4346083;33;45406;-81
2022/07/16 01:30:26;;;;;;;;;;;19.60;80.00;;;;;;4346158;33;43906;-81
2022/07/16 01:32:53;;;;;;;;;;;19.60;80.00;;;;;;4345646;33;44211;-81
2022/07/16 01:35:20;;;;;;;;;;;19.60;80.20;;;;;;4346620;33;42792;-81
2022/07/16 01:37:49;;;;;;;;;;;19.60;80.30;;;;;;4346753;33;43430;-81
2022/07/16 01:40:16;;;;;;;;;;;19.60;80.60;;;;;;4346614;33;44237;-82
2022/07/16 01:42:43;;;;;;;;;;;19.60;80.50;;;;;;4347279;33;43915;-81
2022/07/16 01:45:11;;;;;;;;;;;19.60;80.50;;;;;;4344874;33;43072;-82
2022/07/16 01:47:38;;;;;;;;;;;19.50;80.40;;;;;;4345416;33;44000;-82
2022/07/16 01:50:05;;;;;;;;;;;19.50;80.50;;;;;;4346657;33;44204;-81
2022/07/16 01:52:32;;;;;;;;;;;19.50;80.40;;;;;;4345569;33;44278;-82
2022/07/16 01:54:59;;;;;;;;;;;19.50;80.40;;;;;;4346723;33;44433;-81
2022/07/16 01:57:26;;;;;;;;;;;19.40;80.70;;;;;;4346354;33;43279;-82
2022/07/16 01:59:53;;;;;;;;;;;19.40;80.70;;;;;;4346353;33;43277;-82
2022/07/16 02:02:20;;;;;;;;;;;19.40;80.90;;;;;;4345185;33;43132;-82
2022/07/16 02:04:50;;;;;;;;;;;19.40;80.70;;;;;;4345308;33;43840;-81
2022/07/16 02:07:18;;;;;;;;;;;19.40;80.60;;;;;;4346462;33;43961;-82
2022/07/16 02:09:47;;;;;;;;;;;19.40;80.70;;;;;;4345089;33;44244;-83
2022/07/16 02:12:15;;;;;;;;;;;19.40;81.00;;;;;;4345608;33;42863;-82
2022/07/16 02:14:42;;;;;;;;;;;19.30;80.70;;;;;;4346143;33;42936;-82
2022/07/16 02:17:09;;;;;;;;;;;19.40;80.90;;;;;;4345016;33;43852;-81
2022/07/16 02:19:36;;;;;;;;;;;19.30;80.80;;;;;;4345173;33;43065;-82
2022/07/16 02:22:04;;;;;;;;;;;19.30;80.90;;;;;;4345938;33;42937;-82
2022/07/16 02:24:31;;;;;;;;;;;19.30;81.10;;;;;;4345319;33;43938;-82
2022/07/16 02:26:59;;;;;;;;;;;19.30;81.10;;;;;;4345839;33;43295;-82
2022/07/16 02:29:26;;;;;;;;;;;19.30;81.10;;;;;;4345820;33;43743;-82
2022/07/16 02:31:53;;;;;;;;;;;19.30;81.00;;;;;;4345601;33;43862;-82
2022/07/16 02:34:20;;;;;;;;;;;19.30;81.20;;;;;;4345873;33;43182;-82
2022/07/16 02:36:47;;;;;;;;;;;19.30;81.50;;;;;;4344706;33;45404;-82
2022/07/16 02:39:14;;;;;;;;;;;19.20;81.40;;;;;;4345028;33;43074;-82
2022/07/16 02:41:41;;;;;;;;;;;19.20;81.40;;;;;;4344625;33;43552;-83
2022/07/16 02:44:08;;;;;;;;;;;19.20;81.40;;;;;;4345616;33;42972;-82
2022/07/16 02:46:35;;;;;;;;;;;19.20;81.40;;;;;;4345989;33;43426;-83
2022/07/16 02:49:02;;;;;;;;;;;19.20;81.60;;;;;;4345903;33;42941;-83
2022/07/16 02:51:29;;;;;;;;;;;19.10;81.70;;;;;;4344603;33;43189;-83
2022/07/16 02:53:56;;;;;;;;;;;19.20;81.80;;;;;;4344919;33;42668;-83
2022/07/16 02:56:23;;;;;;;;;;;19.10;81.90;;;;;;4345154;33;42887;-83
2022/07/16 02:58:50;;;;;;;;;;;19.10;81.80;;;;;;4345551;33;44024;-83
2022/07/16 03:01:17;;;;;;;;;;;19.10;81.70;;;;;;4344334;33;42697;-84
2022/07/16 03:03:44;;;;;;;;;;;19.10;81.90;;;;;;4344614;33;42692;-83
2022/07/16 03:06:12;;;;;;;;;;;19.00;81.60;;;;;;4344293;33;42636;-82
2022/07/16 03:08:39;;;;;;;;;;;19.10;81.70;;;;;;4345627;33;43043;-84
2022/07/16 03:11:06;;;;;;;;;;;19.00;81.90;;;;;;4344322;33;44930;-84
2022/07/16 03:13:33;;;;;;;;;;;19.00;82.10;;;;;;4345500;33;44124;-83
2022/07/16 03:16:00;;;;;;;;;;;18.90;82.10;;;;;;4345427;33;42705;-83
2022/07/16 03:18:27;;;;;;;;;;;18.90;82.30;;;;;;4344510;33;44226;-84
2022/07/16 03:20:54;;;;;;;;;;;18.90;82.50;;;;;;4345213;33;42918;-84
2022/07/16 03:23:21;;;;;;;;;;;18.90;82.50;;;;;;4344156;33;44222;-84
2022/07/16 03:25:48;;;;;;;;;;;18.80;82.70;;;;;;4345162;33;43389;-83
2022/07/16 03:28:15;;;;;;;;;;;18.80;82.90;;;;;;4345520;33;43973;-83
2022/07/16 03:30:42;;;;;;;;;;;18.80;82.80;;;;;;4344016;33;45249;-85
2022/07/16 03:33:09;;;;;;;;;;;18.80;83.20;;;;;;4343958;33;43019;-84
2022/07/16 03:35:37;;;;;;;;;;;18.80;83.30;;;;;;4345298;33;43340;-83
2022/07/16 03:40:50;;;;;;;;;;;18.70;83.40;;;;;;4345157;33;42299;-84
2022/07/16 03:43:17;;;;;;;;;;;18.60;83.60;;;;;;4343973;33;44099;-84
2022/07/16 03:45:44;;;;;;;;;;;18.70;83.70;;;;;;4345201;33;43023;-84
2022/07/16 03:48:11;;;;;;;;;;;18.60;83.60;;;;;;4344458;33;44282;-84
2022/07/16 03:50:38;;;;;;;;;;;18.60;83.80;;;;;;4343744;33;42688;-84
2022/07/16 03:53:05;;;;;;;;;;;18.60;84.00;;;;;;4343680;33;45809;-83
2022/07/16 03:55:34;;;;;;;;;;;18.60;84.40;;;;;;4345393;33;44170;-84
2022/07/16 03:58:01;;;;;;;;;;;18.60;84.30;;;;;;4344781;33;42705;-84
2022/07/16 04:00:31;;;;;;;;;;;18.60;84.30;;;;;;4344028;33;43822;-84
2022/07/16 04:03:03;;;;;;;;;;;18.60;84.60;;;;;;4343833;33;43169;-84
2022/07/16 04:05:30;;;;;;;;;;;18.60;84.30;;;;;;4345292;33;44002;-85
2022/07/16 04:07:57;;;;;;;;;;;18.60;84.50;;;;;;4345986;33;43474;-85
2022/07/16 04:10:24;;;;;;;;;;;18.60;84.40;;;;;;4347731;33;44158;-86
2022/07/16 04:12:51;;;;;;;;;;;18.60;84.20;;;;;;4348418;33;43946;-85
2022/07/16 04:15:18;;;;;;;;;;;18.60;84.50;;;;;;4348164;33;44168;-85
2022/07/16 04:17:45;;;;;;;;;;;18.60;84.80;;;;;;4346987;33;43494;-85
2022/07/16 04:20:12;;;;;;;;;;;18.50;84.60;;;;;;4347755;33;44015;-85
2022/07/16 04:22:40;;;;;;;;;;;18.60;84.60;;;;;;4346596;33;43349;-85
2022/07/16 04:25:07;;;;;;;;;;;18.50;84.80;;;;;;4347676;33;43285;-84
2022/07/16 04:27:34;;;;;;;;;;;18.50;84.80;;;;;;4346529;33;42792;-85
2022/07/16 04:30:01;;;;;;;;;;;18.50;84.80;;;;;;4346412;33;43206;-85
2022/07/16 04:32:28;;;;;;;;;;;18.50;84.90;;;;;;4347981;33;44179;-84
2022/07/16 04:34:58;;;;;;;;;;;18.50;85.20;;;;;;4347609;33;43005;-85
2022/07/16 04:37:25;;;;;;;;;;;18.40;85.30;;;;;;4347719;33;43165;-87
2022/07/16 04:39:52;;;;;;;;;;;18.40;85.20;;;;;;4347936;33;44229;-85
2022/07/16 04:42:20;;;;;;;;;;;18.40;84.80;;;;;;4346371;33;42876;-84
2022/07/16 04:44:47;;;;;;;;;;;18.40;85.30;;;;;;4347314;33;42894;-83
2022/07/16 04:47:14;;;;;;;;;;;18.40;85.60;;;;;;4346703;33;43873;-84
2022/07/16 04:49:41;;;;;;;;;;;18.40;85.60;;;;;;4347803;33;43177;-83
2022/07/16 04:52:08;;;;;;;;;;;18.40;85.50;;;;;;4347840;33;44277;-82
2022/07/16 04:54:36;;;;;;;;;;;18.40;85.80;;;;;;4347513;33;42887;-87
2022/07/16 04:57:03;;;;;;;;;;;18.40;86.10;;;;;;4346098;33;44095;-83
2022/07/16 04:59:30;;;;;;;;;;;18.30;86.00;;;;;;4346537;33;43972;-83
2022/07/16 05:04:43;;;;;;;;;;;18.40;86.50;;;;;;4347106;33;43823;-83
2022/07/16 05:07:10;;;;;;;;;;;18.30;86.50;;;;;;4346275;33;43774;-82
2022/07/16 05:09:37;;;;;;;;;;;18.30;87.20;;;;;;4346458;33;43190;-81
2022/07/16 05:12:05;;;;;;;;;;;18.30;87.30;;;;;;4346838;33;44331;-82
2022/07/16 05:14:34;;;;;;;;;;;18.30;87.50;;;;;;4345605;33;45182;-81
2022/07/16 05:17:01;;;;;;;;;;;18.30;88.20;;;;;;4347018;33;43869;-85
2022/07/16 05:19:29;;;;;;;;;;;18.30;88.40;;;;;;4346535;33;44003;-83
2022/07/16 05:21:56;;;;;;;;;;;18.30;88.80;;;;;;4347201;33;42290;-83
2022/07/16 05:24:23;;;;;;;;;;;18.30;88.80;;;;;;4346842;33;43952;-83
2022/07/16 05:26:51;;;;;;;;;;;18.30;89.00;;;;;;4346106;33;43981;-82
2022/07/16 05:29:18;;;;;;;;;;;18.30;89.10;;;;;;4346641;33;43810;-82
2022/07/16 05:31:47;;;;;;;;;;;18.30;89.20;;;;;;4345565;33;45737;-82
2022/07/16 05:34:14;;;;;;;;;;;18.30;89.00;;;;;;4346644;33;44178;-81
2022/07/16 05:36:41;;;;;;;;;;;18.30;88.90;;;;;;4345449;33;44267;-83
2022/07/16 05:39:08;;;;;;;;;;;18.30;89.20;;;;;;4345829;33;44235;-82
2022/07/16 05:41:35;;;;;;;;;;;18.30;89.20;;;;;;4345886;33;43250;-84
2022/07/16 05:44:03;;;;;;;;;;;18.30;89.40;;;;;;4346552;33;44183;-83
2022/07/16 05:46:30;;;;;;;;;;;18.30;89.60;;;;;;4345500;33;42569;-82
2022/07/16 05:48:57;;;;;;;;;;;18.30;89.20;;;;;;4346651;33;43848;-84
2022/07/16 05:51:24;;;;;;;;;;;18.30;89.50;;;;;;4345457;33;44138;-79
2022/07/16 05:53:52;;;;;;;;;;;18.40;89.30;;;;;;4345648;33;42797;-80
2022/07/16 05:56:20;;;;;;;;;;;18.40;89.00;;;;;;4346354;33;42674;-79
2022/07/16 05:58:48;;;;;;;;;;;18.40;89.10;;;;;;4346429;33;43814;-80
2022/07/16 06:01:15;;;;;;;;;;;18.40;89.20;;;;;;4345167;33;44107;-80
2022/07/16 06:03:42;;;;;;;;;;;18.40;89.70;;;;;;4345831;33;43921;-81
2022/07/16 06:06:09;;;;;;;;;;;18.40;89.90;;;;;;4346735;33;44273;-81
2022/07/16 06:08:36;;;;;;;;;;;18.40;90.00;;;;;;4345198;33;42858;-85
2022/07/16 06:11:03;;;;;;;;;;;18.50;90.00;;;;;;4345149;33;43901;-81
2022/07/16 06:13:33;;;;;;;;;;;18.50;90.00;;;;;;4346264;33;43263;-81
2022/07/16 06:16:01;;;;;;;;;;;18.50;90.20;;;;;;4346091;33;43962;-81
2022/07/16 06:18:28;;;;;;;;;;;18.50;90.10;;;;;;4345031;33;43891;-81
2022/07/16 06:20:55;;;;;;;;;;;18.50;89.90;;;;;;4346567;33;43723;-81
2022/07/16 06:23:25;;;;;;;;;;;18.50;89.90;;;;;;4345557;33;43953;-81
2022/07/16 06:25:52;;;;;;;;;;;18.50;89.70;;;;;;4346079;33;43057;-81
2022/07/16 06:28:21;;;;;;;;;;;18.50;90.00;;;;;;4345050;33;43041;-81
2022/07/16 06:30:48;;;;;;;;;;;18.60;90.00;;;;;;4345287;33;43657;-82
2022/07/16 06:33:15;;;;;;;;;;;18.60;90.00;;;;;;4346287;33;43244;-82
2022/07/16 06:35:42;;;;;;;;;;;18.60;90.00;;;;;;4346283;33;44314;-84
2022/07/16 06:38:09;;;;;;;;;;;18.60;90.00;;;;;;4345805;33;43935;-81
2022/07/16 06:40:36;;;;;;;;;;;18.60;90.00;;;;;;4344953;33;43049;-81
2022/07/16 06:43:03;;;;;;;;;;;18.60;90.00;;;;;;4346259;33;43081;-81
2022/07/16 06:45:31;;;;;;;;;;;18.60;90.00;;;;;;4345025;33;43186;-81
2022/07/16 06:48:00;;;;;;;;;;;18.70;90.20;;;;;;4344594;33;43673;-81
2022/07/16 06:50:30;;;;;;;;;;;18.70;90.40;;;;;;4345949;33;43040;-82
2022/07/16 06:52:57;;;;;;;;;;;18.70;90.60;;;;;;4344813;33;42862;-82
2022/07/16 06:55:24;;;;;;;;;;;18.70;90.50;;;;;;4345512;33;44028;-82
2022/07/16 06:57:54;;;;;;;;;;;18.80;90.80;;;;;;4346023;33;43051;-80
2022/07/16 07:00:21;;;;;;;;;;;18.80;90.90;;;;;;4344758;33;42379;-81
2022/07/16 07:02:48;;;;;;;;;;;18.80;90.90;;;;;;4344346;33;43604;-78
2022/07/16 07:05:15;;;;;;;;;;;18.80;91.00;;;;;;4345817;32;44850;-79
2022/07/16 07:07:43;;;;;;;;;;;18.90;91.00;;;;;;4345283;33;44280;-80
2022/07/16 07:10:13;;;;;;;;;;;18.90;91.40;;;;;;4345823;33;43006;-81
2022/07/16 07:12:40;;;;;;;;;;;18.90;91.30;;;;;;4345797;33;44739;-78
2022/07/16 07:15:07;;;;;;;;;;;18.90;91.50;;;;;;4344239;33;43640;-79
2022/07/16 07:17:34;;;;;;;;;;;19.00;91.30;;;;;;4345643;33;43724;-79
2022/07/16 07:20:02;;;;;;;;;;;19.00;91.70;;;;;;4345929;32;43856;-78
2022/07/16 07:22:29;;;;;;;;;;;19.00;91.90;;;;;;4344460;33;42893;-82
2022/07/16 07:24:56;;;;;;;;;;;19.00;91.80;;;;;;4344283;33;42111;-81
2022/07/16 07:27:23;;;;;;;;;;;19.00;91.90;;;;;;4344344;33;42951;-81
2022/07/16 07:29:52;;;;;;;;;;;19.00;92.10;;;;;;4345408;33;43544;-81
2022/07/16 07:32:19;;;;;;;;;;;19.00;92.20;;;;;;4345434;33;43066;-82
2022/07/16 07:34:49;;;;;;;;;;;19.00;92.50;;;;;;4345640;33;43948;-82
2022/07/16 07:37:16;;;;;;;;;;;19.10;92.10;;;;;;4343904;33;43305;-80
2022/07/16 07:39:43;;;;;;;;;;;19.10;92.30;;;;;;4343898;33;43491;-82
2022/07/16 07:42:13;;;;;;;;;;;19.10;92.50;;;;;;4344904;33;42475;-81
2022/07/16 07:44:40;;;;;;;;;;;19.10;92.10;;;;;;4345365;33;45085;-81
2022/07/16 07:47:07;;;;;;;;;;;19.10;92.50;;;;;;4345030;33;43220;-81
2022/07/16 07:49:36;;;;;;;;;;;19.20;92.50;;;;;;4344864;33;42927;-81
2022/07/16 07:52:10;;;;;;;;;;;19.20;92.60;;;;;;4344822;33;44012;-81
2022/07/16 07:54:37;;;;;;;;;;;19.20;92.40;;;;;;4345038;33;42134;-81
2022/07/16 07:57:04;;;;;;;;;;;19.20;92.60;;;;;;4343907;33;42142;-81
2022/07/16 07:59:31;;;;;;;;;;;19.20;92.70;;;;;;4344715;33;42921;-81
2022/07/16 08:01:59;;;;;;;;;;;19.30;92.40;;;;;;4344876;33;43627;-81
2022/07/16 08:04:27;;;;;;;;;;;19.30;92.50;;;;;;4345014;33;42873;-81
2022/07/16 08:06:54;;;;;;;;;;;19.30;92.50;;;;;;4343940;33;43879;-81
2022/07/16 08:09:21;;;;;;;;;;;19.30;92.70;;;;;;4344828;33;43722;-81
2022/07/16 08:11:48;;;;;;;;;;;19.30;92.70;;;;;;4343649;33;43193;-82
2022/07/16 08:14:16;;;;;;;;;;;19.30;92.60;;;;;;4345132;33;44565;-82
2022/07/16 08:16:55;;;;;;;;;;;19.30;92.40;;;;;;4344253;33;43321;-84
2022/07/16 08:19:28;;;;;;;;;;;19.30;92.40;;;;;;4344083;33;43021;-85
2022/07/16 08:22:01;;;;;;;;;;;19.40;92.40;;;;;;4345031;33;43706;-84
2022/07/16 08:27:17;;;;;;;;;;;19.40;92.40;;;;;;4345200;33;45385;-85
2022/07/16 08:29:48;;;;;;;;;;;19.40;92.30;;;;;;4344742;33;43859;-84
2022/07/16 08:32:18;;;;;;;;;;;19.40;92.30;;;;;;4344164;33;43021;-87
2022/07/16 08:34:51;;;;;;;;;;;19.40;92.10;;;;;;4344688;33;42939;-86
2022/07/16 08:37:36;;;;;;;;;;;19.40;92.50;;;;;;4343538;33;44291;-86
2022/07/16 08:40:10;;;;;;;;;;;19.40;92.10;;;;;;4343587;33;43474;-84
2022/07/16 08:42:41;;;;;;;;;;;19.40;92.10;;;;;;4345024;33;43052;-84
2022/07/16 08:45:13;;;;;;;;;;;19.40;92.30;;;;;;4344954;33;42793;-83
2022/07/16 08:47:40;;;;;;;;;;;19.50;92.20;;;;;;4345049;33;43661;-84
2022/07/16 08:50:13;;;;;;;;;;;19.40;91.80;;;;;;4345313;33;43520;-88
2022/07/16 08:52:46;;;;;;;;;;;19.40;92.00;;;;;;4344820;33;42406;-90
2022/07/16 08:55:16;;;;;;;;;;;19.50;92.20;;;;;;4346447;33;42576;-87
2022/07/16 08:57:48;;;;;;;;;;;19.50;92.30;;;;;;4347301;33;43189;-88
2022/07/16 09:00:16;;;;;;;;;;;19.50;91.80;;;;;;4347598;33;43264;-85
2022/07/16 09:02:49;;;;;;;;;;;19.50;92.30;;;;;;4346044;33;44179;-85
2022/07/16 09:05:24;;;;;;;;;;;19.50;92.00;;;;;;4346179;33;43586;-87
2022/07/16 09:07:53;;;;;;;;;;;19.50;92.00;;;;;;4347617;33;43863;-86
2022/07/16 09:10:35;;;;;;;;;;;19.50;92.10;;;;;;4346924;33;44685;-83
2022/07/16 09:13:03;;;;;;;;;;;19.50;92.00;;;;;;4347599;33;43903;-84
2022/07/16 09:15:40;;;;;;;;;;;19.50;92.30;;;;;;4345913;33;43912;-82
2022/07/16 09:18:16;;;;;;;;;;;19.60;92.30;;;;;;4345851;33;42864;-81
2022/07/16 09:20:51;;;;;;;;;;;19.60;92.40;;;;;;4347577;32;44269;-83
2022/07/16 09:23:18;;;;;;;;;;;19.60;92.10;;;;;;4345731;33;44074;-81
2022/07/16 09:25:49;;;;;;;;;;;19.70;92.10;;;;;;4346830;33;42989;-81
2022/07/16 09:28:17;;;;;;;;;;;19.60;91.90;;;;;;4346571;33;43176;-90
2022/07/16 09:30:44;;;;;;;;;;;19.60;91.80;;;;;;4346812;33;43403;-85
2022/07/16 09:33:16;;;;;;;;;;;19.60;92.20;;;;;;4346837;33;43600;-85
2022/07/16 09:35:47;;;;;;;;;;;19.60;92.10;;;;;;4346592;33;43712;-87
2022/07/16 09:38:19;;;;;;;;;;;19.60;92.10;;;;;;4346987;33;43576;-84
2022/07/16 09:40:47;;;;;;;;;;;19.70;92.00;;;;;;4346932;33;43780;-82
2022/07/16 09:43:14;;;;;;;;;;;19.70;91.60;;;;;;4345437;33;43575;-81
2022/07/16 09:45:41;;;;;;;;;;;19.70;91.60;;;;;;4346536;33;43625;-82
2022/07/16 09:48:21;;;;;;;;;;;19.70;92.00;;;;;;4345750;33;42619;-80
2022/07/16 09:50:48;;;;;;;;;;;19.70;91.80;;;;;;4346678;33;42902;-81
2022/07/16 09:53:17;;;;;;;;;;;19.70;92.00;;;;;;4345383;33;44173;-80
2022/07/16 09:56:20;;;;;;;;;;;19.80;91.90;;;;;;4345751;33;43824;-80
2022/07/16 09:58:53;;;;;;;;;;;19.80;91.70;;;;;;4300257;33;44819;-84
2022/07/16 10:01:21;;;;;;;;;;;19.80;92.00;;;;;;4348518;32;42614;-81
2022/07/16 10:03:49;;;;;;;;;;;19.70;91.90;;;;;;4346567;33;43773;-81
2022/07/16 10:06:18;;;;;;;;;;;19.80;92.10;;;;;;4345542;33;42501;-81
2022/07/16 10:08:51;;;;;;;;;;;19.80;92.10;;;;;;4345964;33;45547;-82
2022/07/16 10:11:20;;;;;;;;;;;19.80;91.90;;;;;;4345469;33;43230;-80
2022/07/16 10:13:48;;;;;;;;;;;19.80;91.90;;;;;;4344896;33;42659;-83
2022/07/16 10:16:40;;;;;;;;;;;19.80;91.70;;;;;;4345039;33;43490;-82
2022/07/16 10:19:14;;;;;;;;;;;19.80;91.70;;;;;;4345205;33;44242;-81
2022/07/16 10:22:01;;;;;;;;;;;19.80;91.90;;;;;;4346247;33;42822;-81
2022/07/16 10:24:49;;;;;;;;;;;19.80;91.70;;;;;;4345236;33;42634;-81
2022/07/16 10:27:19;;;;;;;;;;;19.80;91.60;;;;;;4345041;33;44224;-83
2022/07/16 10:29:46;;;;;;;;;;;19.80;91.60;;;;;;4346143;33;43490;-81
2022/07/16 10:32:27;;;;;;;;;;;19.80;91.90;;;;;;4345154;33;43151;-78
2022/07/16 10:34:59;;;;;;;;;;;19.80;92.20;;;;;;4346226;32;43889;-81
2022/07/16 10:37:33;;;;;;;;;;;19.90;92.00;;;;;;4346059;33;43837;-80
2022/07/16 10:40:06;;;;;;;;;;;19.90;92.10;;;;;;4346289;33;43729;-78
2022/07/16 10:42:38;;;;;;;;;;;19.90;92.00;;;;;;4345680;33;43131;-79
2022/07/16 10:45:08;;;;;;;;;;;19.90;91.90;;;;;;4346034;33;42847;-79
2022/07/16 10:47:50;;;;;;;;;;;20.00;91.90;;;;;;4345616;33;43836;-79
2022/07/16 10:50:19;;;;;;;;;;;20.00;91.90;;;;;;4346315;33;43691;-80
2022/07/16 10:52:50;;;;;;;;;;;20.00;91.90;;;;;;4344422;33;43195;-80
2022/07/16 10:55:31;;;;;;;;;;;20.00;91.70;;;;;;4345834;33;42167;-83
2022/07/16 10:58:02;;;;;;;;;;;20.00;91.90;;;;;;4344412;33;43695;-81
2022/07/16 11:00:35;;;;;;;;;;;20.10;91.70;;;;;;4345459;33;42865;-78
2022/07/16 11:03:06;;;;;;;;;;;20.10;91.80;;;;;;4344782;33;45028;-82
2022/07/16 11:05:53;;;;;;;;;;;20.10;91.60;;;;;;4345870;33;42616;-80
2022/07/16 11:08:23;;;;;;;;;;;20.10;91.50;;;;;;4344593;33;43238;-80
2022/07/16 11:10:53;;;;;;;;;;;20.10;91.40;;;;;;4344307;33;43589;-82
2022/07/16 11:13:21;;;;;;;;;;;20.10;91.20;;;;;;4344109;33;43815;-79
2022/07/16 11:15:48;;;;;;;;;;;20.10;90.90;;;;;;4345002;33;42908;-80
2022/07/16 11:18:16;;;;;;;;;;;20.20;90.60;;;;;;4344969;33;44222;-81
2022/07/16 11:20:44;;;;;;;;;;;20.20;90.30;;;;;;4343969;33;42156;-79
2022/07/16 11:23:12;;;;;;;;;;;20.20;90.20;;;;;;4345000;33;43638;-78
2022/07/16 11:25:56;;;;;;;;;;;20.30;90.00;;;;;;4344145;33;42550;-81
2022/07/16 11:28:26;;;;;;;;;;;20.20;90.00;;;;;;4344580;33;43899;-81
2022/07/16 11:31:00;;;;;;;;;;;20.20;88.80;;;;;;4344499;33;43898;-81
2022/07/16 11:33:47;;;;;;;;;;;20.30;88.40;;;;;;4344678;33;43714;-83
2022/07/16 11:36:14;;;;;;;;;;;20.30;87.80;;;;;;4345555;33;42849;-83
2022/07/16 11:38:44;;;;;;;;;;;20.30;88.40;;;;;;4345396;33;42902;-82
2022/07/16 11:41:15;;;;;;;;;;;20.30;87.30;;;;;;4345554;33;42883;-80
2022/07/16 11:43:43;;;;;;;;;;;20.30;88.90;;;;;;4345532;33;44191;-80
2022/07/16 11:46:19;;;;;;;;;;;20.30;87.70;;;;;;4344089;33;44199;-79
2022/07/16 11:48:49;;;;;;;;;;;20.40;86.60;;;;;;4344456;33;43474;-82
2022/07/16 11:51:17;;;;;;;;;;;20.40;86.30;;;;;;4344898;33;43747;-79
2022/07/16 11:53:53;;;;;;;;;;;20.40;86.80;;;;;;4343770;33;43490;-79
2022/07/16 11:56:31;;;;;;;;;;;20.40;86.70;;;;;;4345467;33;45800;-80
2022/07/16 11:58:58;;;;;;;;;;;20.50;86.70;;;;;;4344311;33;45783;-80
2022/07/16 12:01:30;;;;;;;;;;;20.50;85.20;;;;;;4343580;33;42958;-82
2022/07/16 12:03:57;;;;;;;;;;;20.50;85.30;;;;;;4345405;33;44960;-83
2022/07/16 12:06:24;;;;;;;;;;;20.50;85.10;;;;;;4344771;33;42653;-80
2022/07/16 12:08:56;;;;;;;;;;;20.50;85.30;;;;;;4344248;33;43704;-81
2022/07/16 12:11:33;;;;;;;;;;;20.60;85.40;;;;;;4345215;33;45076;-80
2022/07/16 12:14:02;;;;;;;;;;;20.60;84.60;;;;;;4345176;33;43620;-81
2022/07/16 12:16:29;;;;;;;;;;;20.60;84.30;;;;;;4344668;33;43727;-82
2022/07/16 12:19:02;;;;;;;;;;;20.60;83.40;;;;;;4344671;33;42568;-79
2022/07/16 12:21:32;;;;;;;;;;;20.70;83.20;;;;;;4345503;33;43750;-77
2022/07/16 12:24:06;;;;;;;;;;;20.70;81.80;;;;;;4343895;33;42604;-77
2022/07/16 12:26:39;;;;;;;;;;;20.70;82.20;;;;;;4344113;33;42128;-80
2022/07/16 12:29:11;;;;;;;;;;;20.70;83.00;;;;;;4346004;33;41844;-79
2022/07/16 12:31:39;;;;;;;;;;;20.80;83.20;;;;;;4348222;33;43236;-80
2022/07/16 12:34:14;;;;;;;;;;;20.80;82.00;;;;;;4348312;33;20024;-80
2022/07/16 12:36:46;;;;;;;;;;;20.80;81.70;;;;;;4347946;33;42605;-78
2022/07/16 12:39:20;;;;;;;;;;;20.80;82.80;;;;;;4348169;33;43037;-83
2022/07/16 12:41:56;;;;;;;;;;;20.80;83.10;;;;;;4347303;33;44233;-81
2022/07/16 12:44:23;;;;;;;;;;;20.80;81.10;;;;;;4347947;33;43078;-79
2022/07/16 12:46:53;;;;;;;;;;;20.80;80.30;;;;;;4347349;33;42485;-80
2022/07/16 12:49:29;;;;;;;;;;;20.80;79.40;;;;;;4347914;33;43873;-81
2022/07/16 12:52:01;;;;;;;;;;;20.80;81.20;;;;;;4346195;33;43656;-80
2022/07/16 13:00:10;;;;;;;;;;;20.90;81.20;;;;;;4347532;33;43618;-81
2022/07/16 13:02:39;;;;;;;;;;;20.90;80.80;;;;;;4346119;33;44553;-80
2022/07/16 13:05:07;;;;;;;;;;;20.90;80.80;;;;;;4347829;33;20071;-82
2022/07/16 13:07:36;;;;;;;;;;;20.90;80.40;;;;;;4347242;33;42505;-87
2022/07/16 13:10:07;;;;;;;;;;;21.00;81.00;;;;;;4347244;33;42032;-81
2022/07/16 13:12:35;;;;;;;;;;;21.00;80.50;;;;;;4347029;33;44080;-82
2022/07/16 13:15:02;;;;;;;;;;;21.00;80.50;;;;;;4347326;33;43063;-81
2022/07/16 13:17:32;;;;;;;;;;;21.00;78.70;;;;;;4346408;33;43725;-80
2022/07/16 13:19:59;;;;;;;;;;;21.00;79.00;;;;;;4346819;33;44273;-81
2022/07/16 13:22:26;;;;;;;;;;;21.10;79.30;;;;;;4346229;33;43696;-80
2022/07/16 13:24:59;;;;;;;;;;;21.10;77.80;;;;;;4347470;33;42919;-82
2022/07/16 13:27:29;;;;;;;;;;;21.10;78.50;;;;;;4346264;33;44188;-84
2022/07/16 13:29:58;;;;;;;;;;;21.20;79.80;;;;;;4345590;33;44690;-82
2022/07/16 13:32:25;;;;;;;;;;;21.20;79.10;;;;;;4346709;33;44370;-81
2022/07/16 13:34:52;;;;;;;;;;;21.30;79.60;;;;;;4346296;33;45742;-82
2022/07/16 13:37:19;;;;;;;;;;;21.30;79.00;;;;;;4347214;33;43879;-81
2022/07/16 13:39:47;;;;;;;;;;;21.20;77.80;;;;;;4346767;33;44792;-86
2022/07/16 13:42:17;;;;;;;;;;;21.30;77.00;;;;;;4345880;33;45630;-79
2022/07/16 13:44:44;;;;;;;;;;;21.30;78.80;;;;;;4346537;33;42923;-82
2022/07/16 13:47:11;;;;;;;;;;;21.30;76.50;;;;;;4346819;33;42163;-80
2022/07/16 13:49:41;;;;;;;;;;;21.30;77.30;;;;;;4345502;33;42310;-81
2022/07/16 13:52:11;;;;;;;;;;;21.30;77.20;;;;;;4345733;33;43061;-83
2022/07/16 13:54:40;;;;;;;;;;;21.40;77.50;;;;;;4346839;33;44211;-80
2022/07/16 13:59:59;;;;;;;;;;;21.40;77.70;;;;;;4346882;33;43902;-81
2022/07/16 14:02:27;;;;;;;;;;;21.40;77.10;;;;;;4345348;33;43470;-80
2022/07/16 14:04:55;;;;;;;;;;;21.50;77.10;;;;;;4346560;33;42832;-82
2022/07/16 14:07:23;;;;;;;;;;;21.50;78.40;;;;;;4347447;33;19998;-80
2022/07/16 14:09:50;;;;;;;;;;;21.50;79.00;;;;;;4346186;33;44790;-81
2022/07/16 14:12:17;;;;;;;;;;;21.50;78.00;;;;;;4345340;33;44219;-79
2022/07/16 14:14:49;;;;;;;;;;;21.50;79.00;;;;;;4346350;33;42446;-79
2022/07/16 14:17:16;;;;;;;;;;;21.50;77.00;;;;;;4345589;33;45780;-77
2022/07/16 14:19:44;;;;;;;;;;;21.60;77.90;;;;;;4345594;33;42673;-79
2022/07/16 14:22:17;;;;;;;;;;;21.60;75.60;;;;;;4344954;33;45978;-79
2022/07/16 14:24:45;;;;;;;;;;;21.60;77.20;;;;;;4345493;33;43674;-79
2022/07/16 14:27:15;;;;;;;;;;;21.60;76.30;;;;;;4345960;33;43861;-79
2022/07/16 14:29:45;;;;;;;;;;;21.60;76.30;;;;;;4346306;33;42509;-80
2022/07/16 14:32:14;;;;;;;;;;;21.70;74.80;;;;;;4345829;33;44322;-79
2022/07/16 14:34:44;;;;;;;;;;;21.70;75.50;;;;;;4345223;33;44031;-80
2022/07/16 14:37:24;;;;;;;;;;;21.70;74.30;;;;;;4346476;33;42889;-80
2022/07/16 14:39:56;;;;;;;;;;;21.70;74.00;;;;;;4346181;33;42219;-80
2022/07/16 14:42:23;;;;;;;;;;;21.70;75.10;;;;;;4345261;33;43186;-80
2022/07/16 14:44:50;;;;;;;;;;;21.80;75.60;;;;;;4346117;33;43870;-81
2022/07/16 14:47:18;;;;;;;;;;;21.80;76.00;;;;;;4345179;33;43690;-80